Back to Top

Language: 

My Weather Underground Personal Weather Station Historical Data with Graphs...

Delerius Weather Station Historical Data
Daily Summary for September 22, 2017 Units:  English    Metric   Both
« Previous Day
Next Day »
Daily Weekly Monthly Yearly Custom
  High: Low: Average:
Temperature: 61.9 °F 39.7 °F 52.1 °F
Dew Point: 52.7 °F 38.2 °F 47.5 °F
Humidity: 98 % 60 % 85 %
Wind Speed: 13.0 mph 0.0 mph 4.7 mph
Wind Gust: 23.0 mph - -
Wind:- - South
Pressure: 30.11 in 30.05 in -
Precipitation: 0.04 in    
Historical Graphs
 
 
Tabular Data for September 22, 2017
Time Temperature Dew Point Pressure Wind Wind Speed Wind Gust Humidity Rainfall Rate (Hourly) solar Conditions
00:04 46.2 °F 44.0 °F 30.05 in West 1.0 mph 5.0 mph 92 % 0.00 in 0 W/m2
00:09 46.2 °F 44.0 °F 30.06 in WNW 2.0 mph 6.0 mph 92 % 0.00 in 0 W/m2
00:14 46.2 °F 44.3 °F 30.06 in WNW 4.0 mph 8.0 mph 93 % 0.00 in 0 W/m2
00:19 46.6 °F 44.7 °F 30.06 in NW 5.0 mph 9.0 mph 93 % 0.00 in 0 W/m2
00:24 46.8 °F 44.8 °F 30.06 in WNW 5.0 mph 9.0 mph 93 % 0.00 in 0 W/m2
00:29 46.8 °F 44.8 °F 30.06 in WNW 4.0 mph 7.0 mph 93 % 0.00 in 0 W/m2
00:34 46.8 °F 44.8 °F 30.06 in WNW 3.0 mph 7.0 mph 93 % 0.00 in 0 W/m2
00:39 46.6 °F 44.4 °F 30.06 in West 1.0 mph 5.0 mph 92 % 0.00 in 0 W/m2
00:44 46.2 °F 44.0 °F 30.06 in Calm   2.0 mph 92 % 0.00 in 0 W/m2
00:49 45.9 °F 43.7 °F 30.07 in Calm     92 % 0.00 in 0 W/m2
00:54 45.7 °F 43.5 °F 30.07 in Calm     92 % 0.00 in 0 W/m2
00:59 45.3 °F 43.1 °F 30.07 in Calm     92 % 0.00 in 0 W/m2
01:04 45.1 °F 43.0 °F 30.07 in Calm     92 % 0.00 in 0 W/m2
01:09 45.1 °F 43.2 °F 30.07 in Calm     93 % 0.00 in 0 W/m2
01:15 45.1 °F 43.2 °F 30.07 in Calm   2.0 mph 93 % 0.00 in 0 W/m2
01:20 45.1 °F 43.2 °F 30.07 in Calm   2.0 mph 93 % 0.00 in 0 W/m2
01:25 45.1 °F 43.2 °F 30.07 in Calm   1.0 mph 93 % 0.00 in 0 W/m2
01:30 45.3 °F 43.7 °F 30.07 in Calm   2.0 mph 94 % 0.00 in 0 W/m2
01:35 45.3 °F 43.4 °F 30.07 in Calm   2.0 mph 93 % 0.00 in 0 W/m2
01:40 45.1 °F 43.2 °F 30.08 in Calm     93 % 0.00 in 0 W/m2
01:45 45.0 °F 43.1 °F 30.08 in Calm     93 % 0.00 in 0 W/m2
01:50 44.8 °F 42.9 °F 30.08 in Calm     93 % 0.00 in 0 W/m2
01:55 44.8 °F 42.9 °F 30.08 in Calm   4.0 mph 93 % 0.00 in 0 W/m2
02:00 44.4 °F 42.5 °F 30.08 in Calm   4.0 mph 93 % 0.00 in 0 W/m2
02:05 44.2 °F 42.3 °F 30.08 in Calm   2.0 mph 93 % 0.00 in 0 W/m2
02:10 44.1 °F 42.2 °F 30.08 in West 1.0 mph 4.0 mph 93 % 0.00 in 0 W/m2
02:15 44.1 °F 42.4 °F 30.08 in West 1.0 mph 4.0 mph 94 % 0.00 in 0 W/m2
02:20 44.1 °F 42.4 °F 30.08 in Calm   1.0 mph 94 % 0.00 in 0 W/m2
02:25 44.1 °F 42.4 °F 30.08 in Calm   1.0 mph 94 % 0.00 in 0 W/m2
02:30 43.9 °F 42.0 °F 30.08 in Calm     93 % 0.00 in 0 W/m2
02:35 43.7 °F 41.8 °F 30.08 in Calm     93 % 0.00 in 0 W/m2
02:40 43.5 °F 41.9 °F 30.08 in Calm   2.0 mph 94 % 0.00 in 0 W/m2
02:45 43.5 °F 41.9 °F 30.08 in West 1.0 mph 4.0 mph 94 % 0.00 in 0 W/m2
02:50 43.9 °F 42.3 °F 30.08 in West 3.0 mph 6.0 mph 94 % 0.00 in 0 W/m2
02:55 43.9 °F 42.3 °F 30.08 in West 3.0 mph 6.0 mph 94 % 0.00 in 0 W/m2
03:00 43.9 °F 42.3 °F 30.07 in West 3.0 mph 5.0 mph 94 % 0.00 in 0 W/m2
03:05 44.1 °F 42.7 °F 30.07 in West 2.0 mph 5.0 mph 95 % 0.00 in 0 W/m2
03:10 43.9 °F 42.3 °F 30.08 in Calm   3.0 mph 94 % 0.00 in 0 W/m2
03:15 43.7 °F 42.1 °F 30.08 in Calm     94 % 0.00 in 0 W/m2
03:20 43.5 °F 41.9 °F 30.07 in Calm   2.0 mph 94 % 0.00 in 0 W/m2
03:25 43.3 °F 41.7 °F 30.07 in Calm   2.0 mph 94 % 0.00 in 0 W/m2
03:30 43.0 °F 41.4 °F 30.07 in Calm     94 % 0.00 in 0 W/m2
03:35 43.0 °F 41.4 °F 30.07 in Calm   1.0 mph 94 % 0.00 in 0 W/m2
03:40 43.0 °F 41.4 °F 30.08 in Calm   1.0 mph 94 % 0.00 in 0 W/m2
03:45 43.2 °F 41.8 °F 30.07 in Calm   4.0 mph 95 % 0.00 in 0 W/m2
03:50 43.2 °F 41.8 °F 30.08 in Calm   4.0 mph 95 % 0.00 in 0 W/m2
03:55 43.0 °F 41.4 °F 30.08 in Calm     94 % 0.00 in 0 W/m2
04:00 43.0 °F 41.4 °F 30.08 in Calm     94 % 0.00 in 0 W/m2
04:05 42.6 °F 41.0 °F 30.08 in Calm     94 % 0.00 in 0 W/m2
04:10 42.4 °F 40.8 °F 30.08 in Calm     94 % 0.00 in 0 W/m2
04:16 42.4 °F 40.8 °F 30.08 in Calm   2.0 mph 94 % 0.00 in 0 W/m2
04:21 42.4 °F 41.1 °F 30.08 in Calm   2.0 mph 95 % 0.00 in 0 W/m2
04:26 42.4 °F 41.1 °F 30.08 in Calm   3.0 mph 95 % 0.00 in 0 W/m2
04:31 42.4 °F 41.1 °F 30.08 in Calm   3.0 mph 95 % 0.00 in 0 W/m2
04:36 42.4 °F 41.1 °F 30.08 in Calm   1.0 mph 95 % 0.00 in 0 W/m2
04:41 42.4 °F 41.1 °F 30.08 in Calm   2.0 mph 95 % 0.00 in 0 W/m2
04:46 42.4 °F 41.1 °F 30.08 in Calm   2.0 mph 95 % 0.00 in 0 W/m2
04:51 42.6 °F 41.3 °F 30.08 in Calm   2.0 mph 95 % 0.00 in 0 W/m2
04:56 42.6 °F 41.3 °F 30.08 in Calm   2.0 mph 95 % 0.00 in 0 W/m2
05:01 42.8 °F 41.5 °F 30.08 in Calm   2.0 mph 95 % 0.00 in 0 W/m2
05:06 43.0 °F 41.6 °F 30.08 in Calm   1.0 mph 95 % 0.00 in 0 W/m2
05:11 42.8 °F 41.5 °F 30.08 in Calm     95 % 0.00 in 0 W/m2
05:16 42.6 °F 41.3 °F 30.08 in Calm     95 % 0.00 in 0 W/m2
05:21 42.3 °F 40.7 °F 30.08 in Calm     94 % 0.00 in 0 W/m2
05:26 41.7 °F 40.1 °F 30.08 in Calm   3.0 mph 94 % 0.00 in 0 W/m2
05:31 41.5 °F 40.2 °F 30.08 in West 1.0 mph 4.0 mph 95 % 0.00 in 0 W/m2
05:32 41.5 °F 40.2 °F 30.08 in West 2.0 mph 4.0 mph 95 % 0.00 in 0 W/m2
05:37 41.5 °F 40.2 °F 30.08 in West 1.0 mph 4.0 mph 95 % 0.00 in 0 W/m2
05:42 41.5 °F 40.2 °F 30.08 in Calm   2.0 mph 95 % 0.00 in 0 W/m2
05:47 41.5 °F 40.2 °F 30.08 in Calm     95 % 0.00 in 0 W/m2
05:52 41.4 °F 40.0 °F 30.09 in Calm     95 % 0.00 in 0 W/m2
05:57 41.2 °F 39.9 °F 30.09 in West 1.0 mph 4.0 mph 95 % 0.00 in 0 W/m2
06:02 41.2 °F 39.9 °F 30.08 in West 1.0 mph 4.0 mph 95 % 0.00 in 0 W/m2
06:07 41.2 °F 39.9 °F 30.09 in West 1.0 mph 4.0 mph 95 % 0.00 in 0 W/m2
06:12 41.4 °F 40.3 °F 30.09 in West 3.0 mph 5.0 mph 96 % 0.00 in 0 W/m2
06:17 41.4 °F 40.3 °F 30.09 in West 2.0 mph 5.0 mph 96 % 0.00 in 0 W/m2
06:22 41.4 °F 40.0 °F 30.09 in Calm   2.0 mph 95 % 0.00 in 0 W/m2
06:27 40.8 °F 39.5 °F 30.09 in Calm     95 % 0.00 in 0 W/m2
06:32 40.5 °F 38.9 °F 30.09 in Calm     94 % 0.00 in 0 W/m2
06:37 40.1 °F 38.5 °F 30.09 in Calm     94 % 0.00 in 0 W/m2
06:42 39.7 °F 38.2 °F 30.09 in Calm     94 % 0.00 in 0 W/m2
06:47 39.7 °F 38.4 °F 30.09 in Calm     95 % 0.00 in 0 W/m2
06:52 39.7 °F 38.4 °F 30.10 in Calm     95 % 0.00 in 5 W/m2
06:57 39.7 °F 38.4 °F 30.10 in Calm     95 % 0.00 in 7 W/m2
07:02 39.7 °F 38.4 °F 30.10 in Calm     95 % 0.00 in 9 W/m2
07:07 39.7 °F 38.4 °F 30.10 in Calm     95 % 0.00 in 11 W/m2
07:12 39.9 °F 38.9 °F 30.10 in Calm     96 % 0.00 in 12 W/m2
07:17 40.1 °F 39.1 °F 30.10 in Calm     96 % 0.00 in 14 W/m2
07:22 40.5 °F 39.4 °F 30.10 in Calm     96 % 0.00 in 16 W/m2
07:27 40.6 °F 39.6 °F 30.10 in Calm     96 % 0.00 in 18 W/m2
07:32 40.6 °F 39.6 °F 30.10 in Calm     96 % 0.00 in 19 W/m2
07:37 40.6 °F 39.6 °F 30.10 in Calm     96 % 0.00 in 21 W/m2
07:42 40.6 °F 39.6 °F 30.10 in Calm     96 % 0.00 in 23 W/m2
07:47 40.8 °F 39.8 °F 30.10 in Calm     96 % 0.00 in 91 W/m2
07:52 41.4 °F 40.6 °F 30.10 in Calm     97 % 0.00 in 125 W/m2
07:57 42.4 °F 41.6 °F 30.10 in Calm     97 % 0.00 in 137 W/m2
08:02 43.3 °F 42.5 °F 30.10 in Calm     97 % 0.00 in 149 W/m2
08:07 44.2 °F 43.4 °F 30.10 in Calm   1.0 mph 97 % 0.00 in 162 W/m2
08:12 45.1 °F 44.3 °F 30.10 in Calm   1.0 mph 97 % 0.00 in 172 W/m2
08:17 46.0 °F 45.5 °F 30.10 in Calm     98 % 0.00 in 183 W/m2
08:22 46.9 °F 46.1 °F 30.10 in Calm     97 % 0.00 in 195 W/m2
08:27 47.7 °F 46.9 °F 30.10 in Calm     97 % 0.00 in 206 W/m2
08:32 48.2 °F 47.1 °F 30.10 in Calm     96 % 0.00 in 218 W/m2
08:37 48.9 °F 47.6 °F 30.10 in Calm     95 % 0.00 in 230 W/m2
08:42 49.8 °F 48.2 °F 30.10 in Calm     94 % 0.00 in 244 W/m2
08:47 50.5 °F 48.3 °F 30.10 in Calm   2.0 mph 92 % 0.00 in 255 W/m2
08:52 50.9 °F 48.4 °F 30.10 in Calm   2.0 mph 91 % 0.00 in 267 W/m2
08:57 51.4 °F 48.6 °F 30.10 in Calm   4.0 mph 90 % 0.00 in 278 W/m2
09:03 52.0 °F 48.5 °F 30.10 in Calm   4.0 mph 88 % 0.00 in 290 W/m2
09:08 52.7 °F 48.9 °F 30.10 in Calm   2.0 mph 87 % 0.00 in 301 W/m2
09:13 52.9 °F 48.8 °F 30.10 in Calm   2.0 mph 86 % 0.00 in 313 W/m2
09:18 53.1 °F 48.7 °F 30.10 in SSE 1.0 mph 5.0 mph 85 % 0.00 in 325 W/m2
09:23 53.1 °F 49.0 °F 30.11 in SSE 4.0 mph 8.0 mph 86 % 0.00 in 338 W/m2
09:28 53.2 °F 48.8 °F 30.11 in SSE 5.0 mph 8.0 mph 85 % 0.00 in 346 W/m2
09:33 53.4 °F 49.0 °F 30.11 in SSE 5.0 mph 8.0 mph 85 % 0.00 in 359 W/m2
09:38 53.4 °F 49.0 °F 30.11 in SSE 4.0 mph 8.0 mph 85 % 0.00 in 373 W/m2
09:43 53.8 °F 49.4 °F 30.11 in SSE 4.0 mph 8.0 mph 85 % 0.00 in 381 W/m2
09:48 54.1 °F 49.7 °F 30.11 in SSE 4.0 mph 8.0 mph 85 % 0.00 in 392 W/m2
09:50 54.3 °F 49.9 °F 30.11 in SSE 3.0 mph 6.0 mph 85 % 0.00 in 403 W/m2
09:55 54.7 °F 49.9 °F 30.11 in SSW 3.0 mph 8.0 mph 84 % 0.00 in 417 W/m2
10:00 55.0 °F 50.3 °F 30.11 in SSW 4.0 mph 8.0 mph 84 % 0.00 in 427 W/m2
10:05 55.2 °F 50.1 °F 30.11 in SSW 4.0 mph 8.0 mph 83 % 0.00 in 439 W/m2
10:10 55.6 °F 50.2 °F 30.11 in SSW 4.0 mph 8.0 mph 82 % 0.00 in 450 W/m2
10:15 55.8 °F 50.3 °F 30.11 in SSW 4.0 mph 10.0 mph 82 % 0.00 in 459 W/m2
10:20 56.1 °F 50.4 °F 30.11 in SSE 5.0 mph 10.0 mph 81 % 0.00 in 471 W/m2
10:25 56.5 °F 50.4 °F 30.10 in SE 5.0 mph 8.0 mph 80 % 0.00 in 490 W/m2
10:30 56.7 °F 50.6 °F 30.10 in SE 2.0 mph 7.0 mph 80 % 0.00 in 520 W/m2
10:35 57.0 °F 50.6 °F 30.10 in South 3.0 mph 9.0 mph 79 % 0.00 in 506 W/m2
10:40 57.4 °F 50.9 °F 30.10 in South 5.0 mph 9.0 mph 79 % 0.00 in 515 W/m2
10:45 57.7 °F 50.6 °F 30.10 in South 7.0 mph 14.0 mph 77 % 0.00 in 526 W/m2
10:50 57.7 °F 50.6 °F 30.09 in SSW 9.0 mph 14.0 mph 77 % 0.00 in 534 W/m2
10:55 57.9 °F 50.8 °F 30.10 in SSW 8.0 mph 14.0 mph 77 % 0.00 in 545 W/m2
11:00 57.9 °F 50.4 °F 30.09 in SSW 9.0 mph 16.0 mph 76 % 0.00 in 605 W/m2
11:05 57.9 °F 50.4 °F 30.09 in SW 10.0 mph 16.0 mph 76 % 0.00 in 564 W/m2
11:10 57.7 °F 50.2 °F 30.10 in SW 10.0 mph 18.0 mph 76 % 0.00 in 603 W/m2
11:16 57.7 °F 49.9 °F 30.09 in SSW 11.0 mph 18.0 mph 75 % 0.00 in 599 W/m2
11:21 58.1 °F 50.2 °F 30.10 in SSW 11.0 mph 18.0 mph 75 % 0.00 in 598 W/m2
11:26 58.3 °F 50.4 °F 30.10 in SW 10.0 mph 18.0 mph 75 % 0.00 in 128 W/m2
11:31 58.5 °F 50.2 °F 30.09 in SSW 10.0 mph 16.0 mph 74 % 0.00 in 160 W/m2
11:36 58.6 °F 50.4 °F 30.09 in SSW 9.0 mph 16.0 mph 74 % 0.00 in 612 W/m2
11:41 59.2 °F 50.9 °F 30.09 in SSW 8.0 mph 15.0 mph 74 % 0.00 in 617 W/m2
11:46 59.4 °F 50.0 °F 30.09 in SSW 9.0 mph 16.0 mph 71 % 0.00 in 626 W/m2
11:51 59.7 °F 50.7 °F 30.09 in SSW 8.0 mph 16.0 mph 72 % 0.00 in 628 W/m2
11:56 60.1 °F 50.6 °F 30.09 in SW 9.0 mph 15.0 mph 71 % 0.00 in 650 W/m2
12:01 60.1 °F 50.3 °F 30.09 in SSW 9.0 mph 15.0 mph 70 % 0.00 in 668 W/m2
12:06 60.4 °F 50.2 °F 30.09 in SSW 8.0 mph 14.0 mph 69 % 0.00 in 680 W/m2
12:11 60.4 °F 50.6 °F 30.08 in SSW 8.0 mph 14.0 mph 70 % 0.00 in 664 W/m2
12:13 60.6 °F 51.2 °F 30.09 in SSW 8.0 mph 14.0 mph 71 % 0.00 in 666 W/m2
12:18 61.0 °F 51.1 °F 30.08 in SSW 8.0 mph 15.0 mph 70 % 0.00 in 666 W/m2
12:23 61.0 °F 49.9 °F 30.08 in SSW 10.0 mph 16.0 mph 67 % 0.00 in 664 W/m2
12:28 61.0 °F 50.3 °F 30.08 in SSW 10.0 mph 16.0 mph 68 % 0.00 in 661 W/m2
12:33 61.2 °F 50.1 °F 30.08 in South 10.0 mph 22.0 mph 67 % 0.00 in 663 W/m2
12:38 61.0 °F 49.1 °F 30.08 in SSW 12.0 mph 22.0 mph 65 % 0.00 in 673 W/m2
12:43 61.0 °F 48.7 °F 30.08 in SSW 13.0 mph 23.0 mph 64 % 0.00 in 684 W/m2
12:48 61.3 °F 49.1 °F 30.07 in SSW 11.0 mph 23.0 mph 64 % 0.00 in 680 W/m2
12:54 61.2 °F 48.5 °F 30.07 in South 11.0 mph 22.0 mph 63 % 0.00 in 339 W/m2
12:59 60.8 °F 48.1 °F 30.08 in South 11.0 mph 21.0 mph 63 % 0.00 in 227 W/m2
13:04 60.4 °F 47.8 °F 30.07 in SSW 11.0 mph 20.0 mph 63 % 0.00 in 211 W/m2
13:09 60.1 °F 48.3 °F 30.08 in SSW 10.0 mph 20.0 mph 65 % 0.00 in 160 W/m2
13:14 59.5 °F 47.3 °F 30.08 in SSW 11.0 mph 19.0 mph 64 % 0.00 in 142 W/m2
13:19 59.4 °F 48.0 °F 30.08 in SSW 10.0 mph 19.0 mph 66 % 0.00 in 183 W/m2
13:24 59.4 °F 48.4 °F 30.08 in SSW 9.0 mph 14.0 mph 67 % 0.00 in 413 W/m2
13:29 59.5 °F 48.2 °F 30.08 in SSW 8.0 mph 14.0 mph 66 % 0.00 in 366 W/m2
13:34 59.7 °F 48.3 °F 30.08 in SSW 9.0 mph 14.0 mph 66 % 0.00 in 292 W/m2
13:39 59.7 °F 47.9 °F 30.07 in SSW 9.0 mph 14.0 mph 65 % 0.00 in 248 W/m2
13:44 59.7 °F 48.3 °F 30.07 in SSW 9.0 mph 15.0 mph 66 % 0.00 in 227 W/m2
13:49 59.7 °F 48.3 °F 30.07 in SSW 8.0 mph 15.0 mph 66 % 0.00 in 204 W/m2
13:54 59.7 °F 48.7 °F 30.07 in SSW 8.0 mph 14.0 mph 67 % 0.00 in 257 W/m2
13:59 59.9 °F 48.9 °F 30.07 in SSW 8.0 mph 14.0 mph 67 % 0.00 in 271 W/m2
14:04 60.1 °F 48.7 °F 30.07 in South 8.0 mph 13.0 mph 66 % 0.00 in 285 W/m2
14:10 60.3 °F 48.0 °F 30.07 in SSW 9.0 mph 16.0 mph 64 % 0.00 in 492 W/m2
14:14 60.6 °F 48.4 °F 30.07 in SSW 10.0 mph 19.0 mph 64 % 0.00 in 450 W/m2
14:20 61.2 °F 49.3 °F 30.07 in SSW 10.0 mph 19.0 mph 65 % 0.00 in 512 W/m2
14:25 61.5 °F 48.4 °F 30.07 in South 9.0 mph 16.0 mph 62 % 0.00 in 334 W/m2
14:30 61.7 °F 49.0 °F 30.07 in South 9.0 mph 15.0 mph 63 % 0.00 in 352 W/m2
14:35 61.9 °F 49.6 °F 30.07 in SSW 10.0 mph 18.0 mph 64 % 0.00 in 320 W/m2
14:40 61.9 °F 49.1 °F 30.07 in SSW 10.0 mph 18.0 mph 63 % 0.00 in 193 W/m2
14:45 61.9 °F 49.1 °F 30.07 in South 8.0 mph 15.0 mph 63 % 0.00 in 169 W/m2
14:50 61.5 °F 49.2 °F 30.07 in South 8.0 mph 16.0 mph 64 % 0.00 in 193 W/m2
14:55 61.3 °F 49.1 °F 30.07 in SSW 9.0 mph 16.0 mph 64 % 0.00 in 183 W/m2
15:00 61.2 °F 48.0 °F 30.07 in SSW 10.0 mph 16.0 mph 62 % 0.00 in 169 W/m2
15:05 61.0 °F 47.0 °F 30.07 in SSW 11.0 mph 21.0 mph 60 % 0.00 in 130 W/m2
15:10 60.8 °F 46.8 °F 30.08 in SSW 11.0 mph 21.0 mph 60 % 0.00 in 120 W/m2
15:15 60.6 °F 47.1 °F 30.07 in SW 11.0 mph 19.0 mph 61 % 0.00 in 102 W/m2
15:20 60.4 °F 47.4 °F 30.07 in SW 10.0 mph 19.0 mph 62 % 0.00 in 100 W/m2
15:25 60.4 °F 47.8 °F 30.07 in SW 8.0 mph 14.0 mph 63 % 0.00 in 105 W/m2
15:30 60.3 °F 47.6 °F 30.08 in SW 8.0 mph 12.0 mph 63 % 0.00 in 76 W/m2
15:35 60.3 °F 48.0 °F 30.08 in SSW 8.0 mph 13.0 mph 64 % 0.00 in 62 W/m2
15:40 60.1 °F 49.1 °F 30.08 in SSW 7.0 mph 13.0 mph 67 % 0.00 in 54 W/m2
15:45 59.7 °F 49.1 °F 30.07 in SSW 7.0 mph 19.0 mph 68 % 0.00 in 46 W/m2
15:50 59.4 °F 50.0 °F 30.08 in SSW 9.0 mph 19.0 mph 71 % 0.01 in 26 W/m2
15:55 58.6 °F 50.0 °F 30.08 in SSW 10.0 mph 16.0 mph 73 % 0.01 in 33 W/m2
16:00 58.3 °F 51.1 °F 30.07 in SSW 8.0 mph 16.0 mph 77 % 0.02 in 62 W/m2
16:05 57.7 °F 50.9 °F 30.07 in South 6.0 mph 11.0 mph 78 % 0.02 in 100 W/m2
16:10 57.2 °F 51.1 °F 30.07 in South 7.0 mph 12.0 mph 80 % 0.02 in 100 W/m2
16:15 57.0 °F 51.2 °F 30.08 in South 6.0 mph 12.0 mph 81 % 0.02 in 90 W/m2
16:20 56.8 °F 51.4 °F 30.08 in SSW 5.0 mph 11.0 mph 82 % 0.02 in 54 W/m2
16:25 56.7 °F 51.9 °F 30.07 in SSW 3.0 mph 8.0 mph 84 % 0.03 in 40 W/m2
16:30 56.5 °F 52.0 °F 30.07 in SSW 2.0 mph 7.0 mph 85 % 0.03 in 44 W/m2
16:35 56.1 °F 51.7 °F 30.07 in SSE 3.0 mph 6.0 mph 85 % 0.03 in 51 W/m2
16:40 56.1 °F 52.0 °F 30.07 in ESE 5.0 mph 10.0 mph 86 % 0.03 in 49 W/m2
16:45 55.9 °F 51.8 °F 30.07 in SE 6.0 mph 11.0 mph 86 % 0.03 in 63 W/m2
16:50 55.8 °F 51.6 °F 30.07 in SE 7.0 mph 11.0 mph 86 % 0.02 in 102 W/m2
16:55 55.8 °F 51.6 °F 30.07 in SE 6.0 mph 11.0 mph 86 % 0.02 in 253 W/m2
17:00 55.8 °F 51.9 °F 30.06 in SE 6.0 mph 10.0 mph 87 % 0.02 in 209 W/m2
17:05 55.9 °F 52.1 °F 30.06 in SE 6.0 mph 9.0 mph 87 % 0.01 in 134 W/m2
17:10 55.9 °F 52.1 °F 30.06 in SE 6.0 mph 9.0 mph 87 % 0.01 in 91 W/m2
17:15 56.1 °F 52.3 °F 30.06 in SE 5.0 mph 9.0 mph 87 % 0.01 in 77 W/m2
17:20 56.1 °F 52.3 °F 30.06 in SE 4.0 mph 8.0 mph 87 % 0.00 in 91 W/m2
17:25 56.1 °F 52.3 °F 30.06 in ESE 4.0 mph 9.0 mph 87 % 0.00 in 84 W/m2
17:30 56.3 °F 52.5 °F 30.06 in SE 5.0 mph 9.0 mph 87 % 0.00 in 56 W/m2
17:35 56.1 °F 52.3 °F 30.06 in SE 5.0 mph 10.0 mph 87 % 0.00 in 51 W/m2
17:40 56.1 °F 52.0 °F 30.06 in SE 6.0 mph 10.0 mph 86 % 0.00 in 88 W/m2
17:45 56.3 °F 52.2 °F 30.06 in SE 6.0 mph 10.0 mph 86 % 0.00 in 60 W/m2
17:50 56.3 °F 52.2 °F 30.06 in ESE 6.0 mph 9.0 mph 86 % 0.00 in 51 W/m2
17:55 56.3 °F 52.2 °F 30.06 in ESE 6.0 mph 9.0 mph 86 % 0.00 in 88 W/m2
18:00 56.5 °F 52.0 °F 30.06 in SE 7.0 mph 12.0 mph 85 % 0.00 in 62 W/m2
18:05 56.5 °F 52.0 °F 30.06 in SE 7.0 mph 12.0 mph 85 % 0.00 in 118 W/m2
18:10 56.5 °F 52.0 °F 30.06 in SE 7.0 mph 11.0 mph 85 % 0.00 in 98 W/m2
18:15 56.7 °F 52.2 °F 30.06 in SE 6.0 mph 11.0 mph 85 % 0.00 in 91 W/m2
18:20 56.7 °F 51.9 °F 30.06 in SE 5.0 mph 11.0 mph 84 % 0.00 in 42 W/m2
18:25 56.7 °F 51.9 °F 30.06 in SSE 7.0 mph 12.0 mph 84 % 0.00 in 23 W/m2
18:30 56.7 °F 51.6 °F 30.06 in SSE 7.0 mph 12.0 mph 83 % 0.00 in 14 W/m2
18:31 56.7 °F 51.6 °F 30.06 in SSE 7.0 mph 12.0 mph 83 % 0.00 in 14 W/m2
18:36 56.7 °F 51.9 °F 30.06 in SE 6.0 mph 10.0 mph 84 % 0.00 in 9 W/m2
18:41 56.5 °F 51.7 °F 30.06 in SE 6.0 mph 11.0 mph 84 % 0.00 in 7 W/m2
18:46 56.5 °F 51.7 °F 30.06 in SE 5.0 mph 11.0 mph 84 % 0.00 in 7 W/m2
18:51 56.3 °F 51.8 °F 30.06 in SE 6.0 mph 9.0 mph 85 % 0.00 in 7 W/m2
18:56 56.1 °F 51.4 °F 30.06 in SE 6.0 mph 10.0 mph 84 % 0.00 in 7 W/m2
19:01 56.1 °F 51.4 °F 30.06 in SE 7.0 mph 12.0 mph 84 % 0.00 in 5 W/m2
19:06 56.1 °F 51.7 °F 30.06 in SE 6.0 mph 12.0 mph 85 % 0.00 in 0 W/m2
19:11 55.9 °F 51.5 °F 30.06 in SE 6.0 mph 11.0 mph 85 % 0.00 in 0 W/m2
19:16 55.9 °F 51.2 °F 30.07 in SE 6.0 mph 11.0 mph 84 % 0.00 in 0 W/m2
19:21 55.9 °F 51.5 °F 30.07 in SE 5.0 mph 11.0 mph 85 % 0.00 in 0 W/m2
19:26 55.8 °F 51.3 °F 30.06 in SE 4.0 mph 7.0 mph 85 % 0.00 in 0 W/m2
19:31 55.8 °F 51.3 °F 30.06 in SE 4.0 mph 7.0 mph 85 % 0.00 in 0 W/m2
19:36 55.8 °F 51.3 °F 30.07 in SE 4.0 mph 7.0 mph 85 % 0.00 in 0 W/m2
19:41 55.6 °F 51.5 °F 30.07 in SSE 4.0 mph 7.0 mph 86 % 0.00 in 0 W/m2
19:46 55.6 °F 51.5 °F 30.07 in SSE 4.0 mph 8.0 mph 86 % 0.00 in 0 W/m2
19:51 55.6 °F 51.5 °F 30.07 in SSE 4.0 mph 8.0 mph 86 % 0.00 in 0 W/m2
19:56 55.6 °F 51.8 °F 30.07 in SSE 5.0 mph 10.0 mph 87 % 0.00 in 0 W/m2
20:01 55.6 °F 51.8 °F 30.07 in SSE 5.0 mph 10.0 mph 87 % 0.00 in 0 W/m2
20:06 55.6 °F 51.8 °F 30.07 in SSE 6.0 mph 11.0 mph 87 % 0.00 in 0 W/m2
20:11 55.6 °F 51.8 °F 30.07 in SSE 6.0 mph 11.0 mph 87 % 0.00 in 0 W/m2
20:16 55.6 °F 52.1 °F 30.07 in South 6.0 mph 11.0 mph 88 % 0.00 in 0 W/m2
20:21 55.4 °F 51.9 °F 30.08 in South 7.0 mph 13.0 mph 88 % 0.01 in 0 W/m2
20:26 55.4 °F 51.9 °F 30.08 in South 6.0 mph 13.0 mph 88 % 0.01 in 0 W/m2
20:31 55.2 °F 52.0 °F 30.08 in South 6.0 mph 11.0 mph 89 % 0.01 in 0 W/m2
20:36 55.2 °F 52.0 °F 30.08 in South 6.0 mph 15.0 mph 89 % 0.01 in 0 W/m2
20:41 55.2 °F 52.0 °F 30.08 in South 6.0 mph 15.0 mph 89 % 0.01 in 0 W/m2
20:46 55.2 °F 52.3 °F 30.08 in South 6.0 mph 11.0 mph 90 % 0.01 in 0 W/m2
20:51 55.0 °F 52.2 °F 30.08 in South 7.0 mph 14.0 mph 90 % 0.01 in 0 W/m2
20:56 55.0 °F 52.2 °F 30.08 in South 6.0 mph 14.0 mph 90 % 0.01 in 0 W/m2
21:01 55.0 °F 52.2 °F 30.08 in SSE 6.0 mph 13.0 mph 90 % 0.01 in 0 W/m2
21:06 55.0 °F 52.2 °F 30.08 in SSE 7.0 mph 13.0 mph 90 % 0.01 in 0 W/m2
21:11 55.0 °F 52.2 °F 30.08 in SSE 6.0 mph 11.0 mph 90 % 0.01 in 0 W/m2
21:16 54.9 °F 52.0 °F 30.08 in SSE 6.0 mph 15.0 mph 90 % 0.01 in 0 W/m2
21:21 54.9 °F 52.0 °F 30.08 in SSE 6.0 mph 15.0 mph 90 % 0.00 in 0 W/m2
21:26 54.9 °F 52.0 °F 30.08 in South 6.0 mph 12.0 mph 90 % 0.00 in 0 W/m2
21:31 54.9 °F 52.0 °F 30.08 in South 5.0 mph 15.0 mph 90 % 0.00 in 0 W/m2
21:36 54.9 °F 52.0 °F 30.08 in South 6.0 mph 15.0 mph 90 % 0.00 in 0 W/m2
21:41 54.9 °F 52.0 °F 30.08 in South 7.0 mph 12.0 mph 90 % 0.00 in 0 W/m2
21:46 54.9 °F 52.0 °F 30.08 in South 7.0 mph 13.0 mph 90 % 0.00 in 0 W/m2
21:51 55.0 °F 52.2 °F 30.08 in South 8.0 mph 14.0 mph 90 % 0.00 in 0 W/m2
21:57 55.0 °F 52.2 °F 30.08 in South 8.0 mph 18.0 mph 90 % 0.00 in 0 W/m2
22:02 55.2 °F 52.3 °F 30.08 in South 10.0 mph 19.0 mph 90 % 0.00 in 0 W/m2
22:07 55.6 °F 52.4 °F 30.08 in SSW 9.0 mph 19.0 mph 89 % 0.00 in 0 W/m2
22:12 55.6 °F 52.4 °F 30.08 in SSW 9.0 mph 15.0 mph 89 % 0.00 in 0 W/m2
22:17 55.6 °F 52.4 °F 30.08 in SSW 9.0 mph 18.0 mph 89 % 0.00 in 0 W/m2
22:22 55.8 °F 52.6 °F 30.08 in SSW 9.0 mph 18.0 mph 89 % 0.00 in 0 W/m2
22:27 55.8 °F 52.6 °F 30.08 in SSW 8.0 mph 16.0 mph 89 % 0.00 in 0 W/m2
22:32 55.9 °F 52.7 °F 30.08 in SSW 9.0 mph 15.0 mph 89 % 0.00 in 0 W/m2
22:37 55.9 °F 52.4 °F 30.08 in SSW 10.0 mph 19.0 mph 88 % 0.00 in 0 W/m2
22:42 55.9 °F 52.4 °F 30.08 in SSW 10.0 mph 19.0 mph 88 % 0.00 in 0 W/m2
22:47 56.1 °F 52.6 °F 30.08 in SSW 11.0 mph 20.0 mph 88 % 0.00 in 0 W/m2
22:52 55.9 °F 52.4 °F 30.08 in SSW 11.0 mph 20.0 mph 88 % 0.00 in 0 W/m2
22:57 55.9 °F 52.4 °F 30.08 in SSW 10.0 mph 18.0 mph 88 % 0.00 in 0 W/m2
23:02 55.9 °F 52.4 °F 30.08 in SSW 11.0 mph 20.0 mph 88 % 0.00 in 0 W/m2
23:07 55.9 °F 52.4 °F 30.08 in SSW 10.0 mph 20.0 mph 88 % 0.00 in 0 W/m2
23:12 55.8 °F 52.3 °F 30.08 in SSW 10.0 mph 15.0 mph 88 % 0.00 in 0 W/m2
23:17 55.6 °F 52.4 °F 30.08 in SSW 9.0 mph 15.0 mph 89 % 0.00 in 0 W/m2
23:22 55.6 °F 52.4 °F 30.08 in SSW 9.0 mph 14.0 mph 89 % 0.00 in 0 W/m2
23:27 55.6 °F 52.4 °F 30.08 in SSW 9.0 mph 15.0 mph 89 % 0.00 in 0 W/m2
23:32 55.4 °F 52.2 °F 30.08 in SSW 9.0 mph 15.0 mph 89 % 0.00 in 0 W/m2
23:37 55.4 °F 52.2 °F 30.08 in SSW 8.0 mph 15.0 mph 89 % 0.00 in 0 W/m2
23:42 55.4 °F 52.2 °F 30.08 in SSW 8.0 mph 14.0 mph 89 % 0.00 in 0 W/m2
23:47 55.2 °F 52.0 °F 30.08 in SSW 8.0 mph 13.0 mph 89 % 0.00 in 0 W/m2
23:52 55.2 °F 52.3 °F 30.08 in SSW 8.0 mph 14.0 mph 90 % 0.00 in 0 W/m2
23:57 55.2 °F 52.3 °F 30.08 in SSW 8.0 mph 14.0 mph 90 % 0.00 in 0 W/m2
Delerius-Weather
Compliments of Weather Underground - 2.25 mb

Data updates at regular intervals.